createdAt,value
2022-12-25T00:02:25.741Z,67.94
2022-12-25T00:04:55.797Z,67.77
2022-12-25T00:07:25.884Z,67.54
2022-12-25T00:09:58.439Z,67.54
2022-12-25T00:12:28.417Z,67.15
2022-12-25T00:14:58.402Z,67.24
2022-12-25T00:17:28.397Z,67.50
2022-12-25T00:19:58.339Z,67.31
2022-12-25T00:22:28.408Z,67.49
2022-12-25T00:25:03.751Z,67.10
2022-12-25T00:27:34.813Z,66.91
2022-12-25T00:30:04.834Z,66.90
2022-12-25T00:32:34.843Z,67.03
2022-12-25T00:35:05.001Z,66.83
2022-12-25T00:37:35.000Z,66.80
2022-12-25T00:40:08.630Z,66.90
2022-12-25T00:42:38.601Z,66.86
2022-12-25T00:45:09.600Z,66.52
2022-12-25T00:47:41.724Z,66.67
2022-12-25T00:50:12.748Z,66.55
2022-12-25T00:52:42.958Z,66.52
2022-12-25T00:55:15.695Z,66.53
2022-12-25T00:57:45.641Z,66.18
2022-12-25T01:00:16.850Z,66.36
2022-12-25T01:02:46.964Z,66.34
2022-12-25T01:05:16.951Z,66.17
2022-12-25T01:07:47.003Z,66.05
2022-12-25T01:10:22.706Z,66.24
2022-12-25T01:12:53.944Z,66.56
2022-12-25T01:15:23.993Z,66.84
2022-12-25T01:17:53.947Z,66.65
2022-12-25T01:20:24.032Z,66.82
2022-12-25T01:22:53.960Z,66.96
2022-12-25T01:25:26.582Z,66.84
2022-12-25T01:27:56.508Z,66.94
2022-12-25T01:30:26.422Z,66.72
2022-12-25T01:32:56.389Z,66.54
2022-12-25T01:35:26.629Z,66.61
2022-12-25T01:37:56.540Z,66.53
2022-12-25T01:40:29.122Z,66.20
2022-12-25T01:42:59.112Z,66.19
2022-12-25T01:45:38.348Z,66.04
2022-12-25T01:48:12.907Z,65.71
2022-12-25T01:50:46.492Z,65.54
2022-12-25T01:53:17.371Z,65.60
2022-12-25T01:55:53.684Z,65.69
2022-12-25T01:58:24.502Z,65.67
2022-12-25T02:00:56.267Z,65.69
2022-12-25T02:03:27.076Z,65.98
2022-12-25T02:05:57.114Z,66.01
2022-12-25T02:08:27.210Z,66.17
2022-12-25T02:11:00.046Z,66.01
2022-12-25T02:13:34.076Z,65.69
2022-12-25T02:16:09.010Z,65.61
2022-12-25T02:18:49.157Z,65.44
2022-12-25T02:21:33.115Z,65.43
2022-12-25T02:24:35.796Z,65.17
2022-12-25T02:27:21.148Z,64.75
2022-12-25T02:29:59.463Z,64.96
2022-12-25T02:32:33.883Z,64.69
2022-12-25T02:35:05.191Z,64.46
2022-12-25T02:37:41.128Z,64.25
2022-12-25T02:40:15.462Z,64.04
2022-12-25T02:43:04.424Z,63.97
2022-12-25T02:46:00.154Z,64.08
2022-12-25T02:48:47.192Z,64.09
2022-12-25T02:51:33.094Z,63.90
2022-12-25T02:54:20.047Z,63.96
2022-12-25T02:57:04.251Z,63.70
2022-12-25T02:59:48.476Z,63.71
2022-12-25T03:02:34.758Z,63.66
2022-12-25T03:05:21.890Z,63.30
2022-12-25T03:07:52.788Z,63.21
2022-12-25T03:10:36.580Z,63.25
2022-12-25T03:13:11.063Z,63.68
2022-12-25T03:15:53.616Z,63.89
2022-12-25T03:18:29.578Z,64.26
2022-12-25T03:21:12.236Z,64.13
2022-12-25T03:23:57.087Z,64.32
2022-12-25T03:26:41.216Z,64.47
2022-12-25T03:29:11.165Z,64.57
2022-12-25T03:31:45.673Z,64.71
2022-12-25T03:34:56.019Z,64.54
2022-12-25T03:37:48.267Z,64.15
2022-12-25T03:40:39.733Z,63.97
2022-12-25T03:43:31.233Z,63.93
2022-12-25T03:46:19.567Z,63.96
2022-12-25T03:49:07.688Z,64.04
2022-12-25T03:51:56.217Z,63.67
2022-12-25T03:54:42.113Z,63.83
2022-12-25T03:57:25.553Z,63.66
2022-12-25T04:00:07.882Z,63.67
2022-12-25T04:02:54.728Z,63.63
2022-12-25T04:05:37.124Z,63.63
2022-12-25T04:08:22.330Z,63.94
2022-12-25T04:11:04.672Z,63.95
2022-12-25T04:13:47.020Z,64.07
2022-12-25T04:16:29.364Z,64.07
2022-12-25T04:19:11.699Z,64.36
2022-12-25T04:22:09.030Z,64.85
2022-12-25T04:24:56.731Z,65.33
2022-12-25T04:27:39.109Z,65.03
2022-12-25T04:30:23.292Z,64.65
2022-12-25T04:33:05.656Z,64.16
2022-12-25T04:35:49.669Z,63.90
2022-12-25T04:38:21.208Z,63.71
2022-12-25T04:40:53.763Z,63.81
2022-12-25T04:43:27.036Z,63.70
2022-12-25T04:45:57.152Z,63.64
2022-12-25T04:48:30.634Z,63.36
2022-12-25T04:51:00.783Z,63.12
2022-12-25T04:53:33.372Z,62.66
2022-12-25T04:56:09.326Z,62.63
2022-12-25T04:58:40.681Z,62.49
2022-12-25T05:01:10.732Z,62.48
2022-12-25T05:03:41.208Z,62.54
2022-12-25T05:06:14.234Z,62.67
2022-12-25T05:08:44.169Z,62.65
2022-12-25T05:11:18.587Z,62.56
2022-12-25T05:13:48.464Z,62.42
2022-12-25T05:16:20.745Z,62.31
2022-12-25T05:18:52.475Z,62.13
2022-12-25T05:21:23.231Z,62.18
2022-12-25T05:23:53.629Z,62.24
2022-12-25T05:26:28.860Z,62.36
2022-12-25T05:28:59.045Z,62.35
2022-12-25T05:31:29.034Z,62.13
2022-12-25T05:33:59.187Z,62.18
2022-12-25T05:36:29.207Z,61.91
2022-12-25T05:39:02.172Z,61.91
2022-12-25T05:41:35.115Z,61.72
2022-12-25T05:44:05.332Z,61.50
2022-12-25T05:46:35.585Z,61.67
2022-12-25T05:49:05.817Z,61.55
2022-12-25T05:51:36.195Z,61.42
2022-12-25T05:54:06.451Z,61.24
2022-12-25T05:56:41.722Z,61.07
2022-12-25T05:59:11.708Z,61.50
2022-12-25T06:01:41.876Z,61.20
2022-12-25T06:04:12.867Z,61.67
2022-12-25T06:06:43.622Z,61.63
2022-12-25T06:09:15.919Z,61.66
2022-12-25T06:11:48.809Z,61.74
2022-12-25T06:14:19.389Z,62.12
2022-12-25T06:16:49.363Z,62.17
2022-12-25T06:19:19.351Z,61.79
2022-12-25T06:21:49.311Z,61.78
2022-12-25T06:24:21.472Z,61.52
2022-12-25T06:26:54.408Z,61.45
2022-12-25T06:29:26.521Z,61.18
2022-12-25T06:31:57.607Z,61.65
2022-12-25T06:34:27.994Z,62.19
2022-12-25T06:37:00.152Z,61.83
2022-12-25T06:39:30.083Z,61.39
2022-12-25T06:42:02.892Z,61.29
2022-12-25T06:44:33.900Z,60.91
2022-12-25T06:47:04.220Z,60.83
2022-12-25T06:49:43.472Z,60.49
2022-12-25T06:52:13.845Z,60.64
2022-12-25T06:54:43.759Z,60.52
2022-12-25T06:57:16.365Z,60.83
2022-12-25T06:59:51.274Z,60.59
2022-12-25T07:02:27.391Z,60.63
2022-12-25T07:04:57.774Z,60.61
2022-12-25T07:07:27.733Z,60.80
2022-12-25T07:10:00.382Z,60.16
2022-12-25T07:12:32.991Z,60.05
2022-12-25T07:15:02.930Z,59.88
2022-12-25T07:17:32.826Z,60.06
2022-12-25T07:20:02.767Z,60.16
2022-12-25T07:22:33.059Z,59.83
2022-12-25T07:25:03.065Z,59.78
2022-12-25T07:27:35.948Z,60.09
2022-12-25T07:30:06.361Z,60.40
2022-12-25T07:32:36.456Z,60.07
2022-12-25T07:35:06.883Z,60.76
2022-12-25T07:37:37.281Z,60.20
2022-12-25T07:40:08.642Z,59.97
2022-12-25T07:42:41.250Z,60.03
2022-12-25T07:45:12.416Z,59.92
2022-12-25T07:47:42.498Z,60.00
2022-12-25T07:50:13.235Z,59.83
2022-12-25T07:52:44.017Z,60.05
2022-12-25T07:55:14.380Z,60.13
2022-12-25T07:57:47.018Z,60.35
2022-12-25T08:00:18.555Z,60.34
2022-12-25T08:02:48.759Z,60.17
2022-12-25T08:05:19.081Z,59.97
2022-12-25T08:07:53.832Z,60.16
2022-12-25T08:10:27.002Z,60.47
2022-12-25T08:13:01.178Z,60.40
2022-12-25T08:15:32.729Z,60.11
2022-12-25T08:18:02.711Z,60.40
2022-12-25T08:20:32.648Z,60.12
2022-12-25T08:23:02.621Z,60.25
2022-12-25T08:25:32.715Z,60.82
2022-12-25T08:28:32.579Z,60.58
2022-12-25T08:31:02.673Z,60.64
2022-12-25T08:33:32.728Z,60.67
2022-12-25T08:36:05.041Z,60.69
2022-12-25T08:38:44.211Z,60.70
2022-12-25T08:41:15.056Z,60.27
2022-12-25T08:43:48.091Z,60.62
2022-12-25T08:46:18.330Z,60.81
2022-12-25T08:48:49.832Z,60.81
2022-12-25T08:51:21.991Z,60.69
2022-12-25T08:53:53.582Z,60.57
2022-12-25T08:56:23.962Z,60.62
2022-12-25T08:58:56.727Z,60.58
2022-12-25T09:01:26.853Z,60.33
2022-12-25T09:03:56.976Z,60.62
2022-12-25T09:06:26.997Z,60.78
2022-12-25T09:08:57.006Z,60.54
2022-12-25T09:11:29.373Z,60.57
2022-12-25T09:14:02.730Z,60.72
2022-12-25T09:16:44.474Z,60.50
2022-12-25T09:19:14.533Z,60.58
2022-12-25T09:21:44.548Z,60.60
2022-12-25T09:24:14.503Z,60.63
2022-12-25T09:26:44.445Z,60.38
2022-12-25T09:29:18.106Z,60.11
2022-12-25T09:31:48.545Z,60.17
2022-12-25T09:34:19.204Z,59.89
2022-12-25T09:36:49.245Z,60.07
2022-12-25T09:39:19.314Z,59.87
2022-12-25T09:41:58.071Z,59.90
2022-12-25T09:44:34.989Z,59.72
2022-12-25T09:47:09.540Z,59.83
2022-12-25T09:49:44.775Z,59.47
2022-12-25T09:52:19.839Z,59.76
2022-12-25T09:55:06.148Z,59.96
2022-12-25T09:57:36.467Z,59.85
2022-12-25T10:00:17.613Z,60.08
2022-12-25T10:03:18.411Z,60.60
2022-12-25T10:06:06.132Z,60.61
2022-12-25T10:08:56.137Z,60.91
2022-12-25T10:11:39.928Z,60.46
2022-12-25T10:14:22.016Z,60.71
2022-12-25T10:17:02.956Z,60.80
2022-12-25T10:19:47.666Z,61.51
2022-12-25T10:22:23.264Z,61.38
2022-12-25T10:25:19.990Z,61.45
2022-12-25T10:27:59.790Z,61.62
2022-12-25T10:30:32.473Z,61.51
2022-12-25T10:33:05.662Z,61.48
2022-12-25T10:35:35.598Z,61.80
2022-12-25T10:38:12.654Z,61.94
2022-12-25T10:40:55.189Z,61.69
2022-12-25T10:43:32.646Z,61.71
2022-12-25T10:46:02.622Z,62.05
2022-12-25T10:48:36.433Z,62.29
2022-12-25T10:51:06.768Z,62.18
2022-12-25T10:53:42.049Z,62.11
2022-12-25T10:56:20.118Z,62.18
2022-12-25T10:58:50.069Z,62.39
2022-12-25T11:01:20.258Z,62.27
2022-12-25T11:03:55.290Z,62.51
2022-12-25T11:06:27.799Z,62.54
2022-12-25T11:09:00.122Z,62.45
2022-12-25T11:11:31.706Z,62.67
2022-12-25T11:14:03.635Z,62.84
2022-12-25T11:16:40.259Z,62.76
2022-12-25T11:19:28.035Z,63.06
2022-12-25T11:22:01.789Z,62.92
2022-12-25T11:24:37.754Z,63.12
2022-12-25T11:27:09.005Z,63.08
2022-12-25T11:29:43.686Z,63.07
2022-12-25T11:32:22.922Z,63.47
2022-12-25T11:34:56.552Z,63.80
2022-12-25T11:37:32.860Z,63.99
2022-12-25T11:40:03.193Z,64.05
2022-12-25T11:43:10.280Z,64.12
2022-12-25T11:45:44.331Z,64.21
2022-12-25T11:48:18.689Z,64.49
2022-12-25T11:50:56.273Z,64.71
2022-12-25T11:53:34.960Z,64.93
2022-12-25T11:56:10.819Z,65.08
2022-12-25T11:58:43.852Z,65.56
2022-12-25T12:01:20.655Z,65.23
2022-12-25T12:03:59.175Z,65.11
2022-12-25T12:06:43.914Z,65.07
2022-12-25T12:09:27.367Z,65.40
2022-12-25T12:12:04.298Z,65.63
2022-12-25T12:14:45.990Z,65.62
2022-12-25T12:17:18.340Z,65.66
2022-12-25T12:19:48.671Z,65.72
2022-12-25T12:22:25.220Z,65.83
2022-12-25T12:24:58.913Z,66.02
2022-12-25T12:27:38.592Z,65.90
2022-12-25T12:30:10.891Z,66.29
2022-12-25T12:32:43.644Z,66.67
2022-12-25T12:35:20.055Z,66.48
2022-12-25T12:37:57.831Z,66.24
2022-12-25T12:40:33.783Z,66.38
2022-12-25T12:43:04.433Z,66.44
2022-12-25T12:45:37.513Z,66.43
2022-12-25T12:48:17.380Z,66.84
2022-12-25T12:50:47.525Z,66.72
2022-12-25T12:53:32.365Z,66.62
2022-12-25T12:56:16.831Z,66.76
2022-12-25T12:58:50.895Z,66.68
2022-12-25T13:01:34.486Z,66.71
2022-12-25T13:04:21.207Z,66.75
2022-12-25T13:07:00.093Z,66.89
2022-12-25T13:09:47.052Z,66.96
2022-12-25T13:12:18.165Z,66.78
2022-12-25T13:14:49.864Z,67.13
2022-12-25T13:17:24.789Z,67.23
2022-12-25T13:19:58.836Z,67.26
2022-12-25T13:22:34.096Z,67.31
2022-12-25T13:25:10.563Z,67.29
2022-12-25T13:27:40.516Z,67.39
2022-12-25T13:30:20.471Z,67.27
2022-12-25T13:32:50.779Z,67.46
2022-12-25T13:35:24.059Z,67.38
2022-12-25T13:37:56.163Z,67.38
2022-12-25T13:40:30.895Z,67.56
2022-12-25T13:43:01.042Z,67.46
2022-12-25T13:45:35.061Z,67.66
2022-12-25T13:48:17.206Z,67.63
2022-12-25T13:50:59.914Z,67.41
2022-12-25T13:53:30.029Z,67.26
2022-12-25T13:56:02.775Z,67.61
2022-12-25T13:58:37.278Z,68.07
2022-12-25T14:01:07.817Z,67.74
2022-12-25T14:03:42.872Z,67.65
2022-12-25T14:06:21.296Z,67.83
2022-12-25T14:08:52.016Z,67.86
2022-12-25T14:11:26.789Z,67.58
2022-12-25T14:14:00.427Z,67.41
2022-12-25T14:16:31.064Z,67.54
2022-12-25T14:19:03.005Z,67.35
2022-12-25T14:21:36.019Z,67.79
2022-12-25T14:24:06.353Z,67.54
2022-12-25T14:26:39.034Z,67.96
2022-12-25T14:29:17.159Z,68.10
2022-12-25T14:31:48.820Z,67.79
2022-12-25T14:34:21.572Z,67.58
2022-12-25T14:36:53.331Z,67.67
2022-12-25T14:39:31.020Z,67.71
2022-12-25T14:42:22.685Z,67.71
2022-12-25T14:45:04.245Z,67.88
2022-12-25T14:47:35.283Z,67.69
2022-12-25T14:50:16.972Z,67.74
2022-12-25T14:52:48.243Z,67.47
2022-12-25T14:55:23.580Z,67.74
2022-12-25T14:58:24.728Z,67.77
2022-12-25T15:01:23.643Z,67.70
2022-12-25T15:03:53.942Z,67.94
2022-12-25T15:06:25.548Z,68.07
2022-12-25T15:09:00.893Z,68.28
2022-12-25T15:11:31.568Z,68.31
2022-12-25T15:14:04.200Z,68.28
2022-12-25T15:16:42.366Z,68.36
2022-12-25T15:19:24.903Z,68.43
2022-12-25T15:21:55.985Z,68.62
2022-12-25T15:24:25.970Z,68.80
2022-12-25T15:26:55.984Z,69.08
2022-12-25T15:32:21.265Z,68.88
2022-12-25T15:34:52.942Z,68.74
2022-12-25T15:37:22.910Z,68.74
2022-12-25T15:39:53.661Z,68.88
2022-12-25T15:42:26.356Z,68.69
2022-12-25T15:44:58.995Z,69.17
2022-12-25T15:47:28.943Z,69.75
2022-12-25T15:49:58.972Z,69.52
2022-12-25T15:52:29.053Z,69.36
2022-12-25T15:54:59.088Z,69.38
2022-12-25T15:57:30.742Z,69.23
2022-12-25T16:00:03.554Z,69.25
2022-12-25T16:02:42.012Z,69.25
2022-12-25T16:05:12.511Z,69.12
2022-12-25T16:07:43.308Z,69.31
2022-12-25T16:10:19.580Z,69.33
2022-12-25T16:12:49.813Z,69.43
2022-12-25T16:15:23.772Z,69.64
2022-12-25T16:17:58.153Z,69.35
2022-12-25T16:20:28.671Z,69.53
2022-12-25T16:22:58.932Z,69.52
2022-12-25T16:25:29.113Z,69.46
2022-12-25T16:27:59.208Z,69.50
2022-12-25T16:30:31.919Z,69.54
2022-12-25T16:33:02.344Z,69.70
2022-12-25T16:35:32.558Z,69.73
2022-12-25T16:38:03.541Z,69.65
2022-12-25T16:40:34.789Z,69.62
2022-12-25T16:43:04.787Z,69.74
2022-12-25T16:45:40.545Z,69.65
2022-12-25T16:48:12.665Z,69.95
2022-12-25T16:50:43.425Z,69.74
2022-12-25T16:53:13.820Z,69.52
2022-12-25T16:55:43.936Z,69.95
2022-12-25T16:58:13.895Z,69.84
2022-12-25T17:00:49.401Z,69.99
2022-12-25T17:03:20.281Z,69.80
2022-12-25T17:05:50.327Z,70.17
2022-12-25T17:08:20.336Z,70.13
2022-12-25T17:10:52.641Z,70.32
2022-12-25T17:13:22.625Z,70.35
2022-12-25T17:15:55.211Z,70.36
2022-12-25T17:18:25.307Z,70.45
2022-12-25T17:20:56.401Z,70.49
2022-12-25T17:23:26.516Z,71.11
2022-12-25T17:25:56.466Z,70.73
2022-12-25T17:28:26.416Z,70.84
2022-12-25T17:31:04.931Z,70.61
2022-12-25T17:33:35.182Z,70.39
2022-12-25T17:36:06.017Z,70.44
2022-12-25T17:38:39.524Z,70.36
2022-12-25T17:41:11.998Z,70.59
2022-12-25T17:43:44.342Z,70.34
2022-12-25T17:46:18.943Z,70.89
2022-12-25T17:48:51.107Z,71.58
2022-12-25T17:51:24.024Z,71.09
2022-12-25T17:53:55.839Z,71.15
2022-12-25T17:56:27.610Z,71.56
2022-12-25T17:59:06.846Z,71.29
2022-12-25T18:01:40.509Z,71.08
2022-12-25T18:04:25.039Z,71.14
2022-12-25T18:06:58.017Z,70.97
2022-12-25T18:09:48.258Z,71.07
2022-12-25T18:12:18.299Z,70.95
2022-12-25T18:14:48.313Z,71.31
2022-12-25T18:17:21.136Z,71.43
2022-12-25T18:19:53.198Z,71.38
2022-12-25T18:22:23.221Z,71.22
2022-12-25T18:24:53.157Z,71.80
2022-12-25T18:27:26.686Z,71.60
2022-12-25T18:29:56.746Z,71.90
2022-12-25T18:32:29.396Z,71.52
2022-12-25T18:34:59.343Z,71.37
2022-12-25T18:37:34.383Z,71.64
2022-12-25T18:40:09.365Z,71.65
2022-12-25T18:42:43.343Z,71.55
2022-12-25T18:45:15.890Z,71.67
2022-12-25T18:47:50.435Z,71.70
2022-12-25T18:50:20.366Z,72.20
2022-12-25T18:52:51.713Z,72.16
2022-12-25T18:55:23.179Z,72.84
2022-12-25T18:57:53.174Z,72.88
2022-12-25T19:00:24.352Z,72.14
2022-12-25T19:02:59.401Z,72.02
2022-12-25T19:05:29.776Z,71.78
2022-12-25T19:08:00.062Z,71.62
2022-12-25T19:10:30.104Z,71.66
2022-12-25T19:13:00.174Z,71.87
2022-12-25T19:15:30.374Z,71.99
2022-12-25T19:18:02.993Z,72.20
2022-12-25T19:20:33.059Z,72.66
2022-12-25T19:23:03.106Z,73.26
2022-12-25T19:25:34.085Z,72.71
2022-12-25T19:28:04.276Z,72.68
2022-12-25T19:30:34.291Z,72.38
2022-12-25T19:33:33.818Z,73.64
2022-12-25T19:36:19.440Z,73.25
2022-12-25T19:38:50.558Z,72.79
2022-12-25T19:41:22.027Z,72.64
2022-12-25T19:43:52.578Z,73.13
2022-12-25T19:46:25.095Z,74.04
2022-12-25T19:48:59.226Z,73.71
2022-12-25T19:51:30.767Z,72.86
2022-12-25T19:54:00.890Z,73.83
2022-12-25T19:56:32.908Z,74.03
2022-12-25T19:59:03.594Z,74.01
2022-12-25T20:01:33.918Z,74.30
2022-12-25T20:04:08.797Z,75.33
2022-12-25T20:06:40.882Z,74.27
2022-12-25T20:09:15.309Z,73.58
2022-12-25T20:11:46.253Z,73.27
2022-12-25T20:14:18.143Z,74.34
2022-12-25T20:16:48.677Z,73.49
2022-12-25T20:19:21.381Z,73.59
2022-12-25T20:21:51.436Z,74.43
2022-12-25T20:24:21.515Z,74.98
2022-12-25T20:26:57.077Z,75.36
2022-12-25T20:29:28.882Z,75.51
2022-12-25T20:31:59.030Z,76.03
2022-12-25T20:34:31.697Z,74.66
2022-12-25T20:37:01.716Z,74.38
2022-12-25T20:39:31.937Z,74.23
2022-12-25T20:42:02.003Z,73.37
2022-12-25T20:44:32.014Z,74.65
2022-12-25T20:47:03.590Z,74.43
2022-12-25T20:49:37.033Z,75.09
2022-12-25T20:52:08.516Z,74.85
2022-12-25T20:54:38.513Z,75.15
2022-12-25T20:57:08.710Z,74.31
2022-12-25T20:59:40.124Z,74.37
2022-12-25T21:02:34.905Z,74.84
2022-12-25T21:05:05.055Z,75.00
2022-12-25T21:07:35.143Z,74.89
2022-12-25T21:10:05.091Z,74.53
2022-12-25T21:12:35.218Z,75.22
2022-12-25T21:15:08.911Z,74.94
2022-12-25T21:17:41.708Z,74.50
2022-12-25T21:20:14.788Z,75.07
2022-12-25T21:23:05.109Z,73.82
2022-12-25T21:25:35.106Z,73.78
2022-12-25T21:28:04.993Z,73.93
2022-12-25T21:30:35.071Z,74.52
2022-12-25T21:33:17.705Z,74.32
2022-12-25T21:35:50.614Z,74.71
2022-12-25T21:38:20.832Z,74.48
2022-12-25T21:40:51.748Z,73.81
2022-12-25T21:43:22.097Z,73.78
2022-12-25T21:45:52.224Z,73.91
2022-12-25T21:48:22.198Z,73.74
2022-12-25T21:51:07.233Z,74.01
2022-12-25T21:53:37.211Z,74.04
2022-12-25T21:56:07.701Z,74.20
2022-12-25T21:58:47.254Z,75.19
2022-12-25T22:01:28.102Z,76.19
2022-12-25T22:04:08.748Z,76.17
2022-12-25T22:06:54.102Z,74.87
2022-12-25T22:09:26.197Z,74.70
2022-12-25T22:12:11.304Z,75.38
2022-12-25T22:14:56.825Z,75.46
2022-12-25T22:17:40.910Z,74.90
2022-12-25T22:20:13.960Z,74.43
2022-12-25T22:22:47.018Z,75.03
2022-12-25T22:25:18.476Z,74.16
2022-12-25T22:27:49.659Z,73.98
2022-12-25T22:30:21.528Z,74.88
2022-12-25T22:32:52.392Z,74.96
2022-12-25T22:35:24.373Z,74.51
2022-12-25T22:37:57.491Z,74.11
2022-12-25T22:40:27.417Z,75.87
2022-12-25T22:42:57.930Z,74.86
2022-12-25T22:45:27.911Z,74.39
2022-12-25T22:47:57.818Z,74.76
2022-12-25T22:50:27.888Z,74.80
2022-12-25T22:53:00.436Z,75.36
2022-12-25T22:55:30.378Z,75.31
2022-12-25T22:58:00.321Z,74.91
2022-12-25T23:00:30.267Z,75.74
2022-12-25T23:03:00.408Z,75.39
2022-12-25T23:05:30.436Z,75.29
2022-12-25T23:08:02.968Z,75.85
2022-12-25T23:10:33.008Z,75.54
2022-12-25T23:13:15.337Z,75.42
2022-12-25T23:15:48.283Z,75.87
2022-12-25T23:18:31.002Z,76.64
2022-12-25T23:21:15.538Z,76.28
2022-12-25T23:24:00.581Z,76.26
2022-12-25T23:26:30.596Z,75.91
2022-12-25T23:29:14.032Z,75.31
2022-12-25T23:31:44.854Z,75.95
2022-12-25T23:34:14.752Z,75.15
2022-12-25T23:36:44.651Z,75.46
2022-12-25T23:39:17.287Z,74.83
2022-12-25T23:41:47.417Z,75.13
2022-12-25T23:44:17.841Z,75.16
2022-12-25T23:46:52.368Z,75.43
2022-12-25T23:49:23.995Z,75.07
2022-12-25T23:51:54.647Z,74.88
2022-12-25T23:54:29.545Z,75.12
2022-12-25T23:57:00.835Z,75.42
2022-12-25T23:59:39.546Z,75.58
